createdAt,value
2019-02-25T00:00:15.941Z,6.13
2019-02-25T00:05:19.976Z,5.99
2019-02-25T00:10:23.981Z,5.98
2019-02-25T00:15:28.060Z,5.99
2019-02-25T00:20:32.241Z,6.25
2019-02-25T00:25:36.294Z,6.22
2019-02-25T00:30:40.603Z,6.10
2019-02-25T00:35:44.627Z,6.05
2019-02-25T00:40:48.836Z,6.04
2019-02-25T00:45:53.285Z,5.91
2019-02-25T00:50:57.563Z,5.93
2019-02-25T00:56:01.645Z,5.98
2019-02-25T01:01:05.677Z,5.88
2019-02-25T01:06:09.698Z,5.50
2019-02-25T01:11:13.821Z,5.82
2019-02-25T01:16:17.873Z,5.96
2019-02-25T01:21:21.813Z,6.01
2019-02-25T01:26:25.880Z,6.28
2019-02-25T01:31:29.868Z,6.30
2019-02-25T01:36:33.955Z,6.04
2019-02-25T01:41:38.043Z,5.83
2019-02-25T01:46:42.051Z,5.96
2019-02-25T01:51:46.016Z,5.55
2019-02-25T01:56:50.150Z,5.31
2019-02-25T02:01:54.241Z,5.35
2019-02-25T02:06:58.146Z,5.44
2019-02-25T02:12:02.331Z,5.37
2019-02-25T02:17:06.422Z,5.77
2019-02-25T02:22:10.691Z,5.93
2019-02-25T02:27:14.720Z,5.82
2019-02-25T02:32:18.719Z,6.03
2019-02-25T02:37:22.968Z,6.17
2019-02-25T02:42:27.035Z,6.45
2019-02-25T02:47:42.121Z,6.60
2019-02-25T02:52:46.439Z,6.31
2019-02-25T02:57:50.551Z,6.37
2019-02-25T03:02:54.721Z,6.58
2019-02-25T03:07:59.413Z,6.53
2019-02-25T03:13:03.479Z,6.44
2019-02-25T03:18:07.610Z,6.47
2019-02-25T03:23:11.645Z,6.41
2019-02-25T03:28:15.770Z,6.33
2019-02-25T03:33:19.914Z,6.36
2019-02-25T03:38:23.930Z,6.33
2019-02-25T03:43:28.014Z,6.21
2019-02-25T03:48:31.928Z,6.26
2019-02-25T03:53:36.012Z,6.24
2019-02-25T03:58:40.235Z,6.03
2019-02-25T04:03:44.261Z,5.95
2019-02-25T04:08:48.334Z,5.70
2019-02-25T04:13:52.526Z,5.67
2019-02-25T04:18:56.646Z,5.63
2019-02-25T04:24:00.821Z,5.32
2019-02-25T04:29:04.947Z,5.14
2019-02-25T04:34:08.935Z,5.24
2019-02-25T04:39:12.951Z,5.50
2019-02-25T04:44:16.871Z,5.50
2019-02-25T04:49:21.006Z,5.60
2019-02-25T04:54:25.132Z,5.77
2019-02-25T04:59:29.153Z,5.66
2019-02-25T05:04:33.280Z,5.85
2019-02-25T05:09:37.406Z,5.93
2019-02-25T05:14:41.432Z,6.07
2019-02-25T05:19:45.458Z,6.45
2019-02-25T05:24:49.486Z,6.30
2019-02-25T05:29:53.511Z,6.11
2019-02-25T05:34:57.536Z,5.79
2019-02-25T05:40:01.772Z,5.81
2019-02-25T05:45:05.893Z,5.98
2019-02-25T05:50:11.981Z,6.05
2019-02-25T05:55:16.247Z,5.99
2019-02-25T06:00:20.397Z,6.12
2019-02-25T06:05:24.462Z,6.27
2019-02-25T06:10:28.592Z,6.29
2019-02-25T06:15:32.706Z,6.27
2019-02-25T06:20:36.841Z,6.26
2019-02-25T06:25:40.967Z,6.26
2019-02-25T06:30:44.997Z,6.19
2019-02-25T06:35:49.169Z,6.09
2019-02-25T06:40:53.193Z,6.30
2019-02-25T06:45:57.263Z,6.63
2019-02-25T06:51:01.358Z,6.67
2019-02-25T06:56:05.540Z,6.67
2019-02-25T07:01:09.476Z,6.82
2019-02-25T07:06:13.641Z,6.84
2019-02-25T07:11:17.811Z,6.78
2019-02-25T07:16:21.833Z,6.74
2019-02-25T07:21:25.760Z,6.88
2019-02-25T07:26:29.939Z,7.04
2019-02-25T07:31:34.090Z,7.12
2019-02-25T07:36:38.216Z,7.10
2019-02-25T07:41:42.323Z,7.05
2019-02-25T07:46:46.396Z,7.08
2019-02-25T07:51:50.702Z,7.23
2019-02-25T07:56:55.009Z,7.39
2019-02-25T08:01:59.243Z,7.45
2019-02-25T08:07:03.320Z,7.54
2019-02-25T08:12:07.545Z,7.56
2019-02-25T08:17:11.776Z,7.65
2019-02-25T08:22:15.909Z,7.71
2019-02-25T08:27:19.826Z,7.80
2019-02-25T08:32:23.955Z,7.83
2019-02-25T08:37:32.091Z,8.06
2019-02-25T08:42:34.211Z,8.26
2019-02-25T08:47:38.909Z,8.40
2019-02-25T08:52:43.131Z,8.47
2019-02-25T08:57:47.261Z,8.60
2019-02-25T09:02:53.001Z,8.77
2019-02-25T09:07:57.046Z,9.02
2019-02-25T09:13:01.176Z,8.87
2019-02-25T09:18:03.278Z,8.95
2019-02-25T09:23:07.286Z,9.27
2019-02-25T09:28:11.303Z,9.65
2019-02-25T09:33:15.332Z,10.23
2019-02-25T09:38:19.460Z,10.40
2019-02-25T09:43:23.584Z,10.44
2019-02-25T09:48:27.547Z,10.60
2019-02-25T09:53:31.497Z,11.01
2019-02-25T09:58:35.714Z,10.96
2019-02-25T10:03:41.121Z,11.44
2019-02-25T10:08:46.574Z,11.38
2019-02-25T10:13:51.933Z,11.74
2019-02-25T10:18:56.326Z,11.81
2019-02-25T10:24:00.461Z,12.05
2019-02-25T10:29:04.741Z,12.18
2019-02-25T10:34:08.814Z,12.33
2019-02-25T10:39:14.939Z,12.04
2019-02-25T10:44:18.803Z,12.30
2019-02-25T10:49:24.420Z,12.88
2019-02-25T10:54:28.489Z,12.57
2019-02-25T10:59:34.524Z,12.91
2019-02-25T11:04:38.428Z,12.76
2019-02-25T11:09:44.409Z,12.70
2019-02-25T11:14:48.436Z,12.90
2019-02-25T11:19:54.500Z,13.03
2019-02-25T11:24:58.432Z,12.99
2019-02-25T11:30:02.352Z,13.18
2019-02-25T11:35:08.657Z,13.23
2019-02-25T11:40:15.214Z,13.42
2019-02-25T11:45:19.300Z,13.22
2019-02-25T11:50:23.634Z,13.18
2019-02-25T11:55:27.698Z,13.15
2019-02-25T12:00:31.881Z,13.44
2019-02-25T12:05:36.373Z,13.03
2019-02-25T12:10:42.366Z,13.51
2019-02-25T12:15:46.517Z,13.48
2019-02-25T12:20:50.655Z,13.24
2019-02-25T12:25:55.202Z,13.78
2019-02-25T12:30:59.258Z,13.56
2019-02-25T12:36:03.333Z,13.28
2019-02-25T12:41:07.679Z,13.21
2019-02-25T12:46:11.947Z,13.73
2019-02-25T12:51:16.042Z,13.63
2019-02-25T12:56:20.199Z,13.33
2019-02-25T13:01:25.202Z,13.45
2019-02-25T13:06:29.185Z,13.41
2019-02-25T13:11:33.307Z,13.80
2019-02-25T13:16:37.420Z,13.75
2019-02-25T13:21:41.468Z,13.78
2019-02-25T13:26:45.487Z,13.75
2019-02-25T13:31:49.607Z,13.64
2019-02-25T13:36:53.694Z,13.41
2019-02-25T13:41:58.127Z,13.95
2019-02-25T13:47:02.027Z,13.56
2019-02-25T13:52:06.057Z,13.79
2019-02-25T13:57:10.515Z,13.69
2019-02-25T14:02:14.787Z,13.81
2019-02-25T14:07:18.817Z,13.93
2019-02-25T14:12:22.947Z,13.95
2019-02-25T14:17:26.978Z,13.21
2019-02-25T14:22:31.413Z,13.31
2019-02-25T14:27:35.478Z,13.38
2019-02-25T14:32:39.693Z,12.74
2019-02-25T14:37:44.237Z,13.16
2019-02-25T14:42:49.453Z,13.35
2019-02-25T14:47:57.533Z,13.31
2019-02-25T14:53:00.618Z,13.64
2019-02-25T14:58:07.375Z,13.36
2019-02-25T15:03:13.028Z,13.23
2019-02-25T15:08:17.520Z,12.96
2019-02-25T15:13:24.008Z,13.45
2019-02-25T15:18:29.115Z,13.54
2019-02-25T15:23:33.738Z,13.14
2019-02-25T15:28:38.003Z,13.01
2019-02-25T15:33:42.505Z,13.09
2019-02-25T15:38:46.791Z,12.82
2019-02-25T15:43:53.067Z,12.79
2019-02-25T15:48:57.138Z,13.03
2019-02-25T15:54:01.626Z,12.72
2019-02-25T15:59:05.910Z,12.92
2019-02-25T16:04:13.338Z,12.69
2019-02-25T16:09:21.537Z,12.60
2019-02-25T16:14:23.991Z,12.46
2019-02-25T16:19:39.931Z,12.37
2019-02-25T16:24:35.362Z,12.29
2019-02-25T16:29:41.777Z,11.89
2019-02-25T16:34:45.970Z,11.71
2019-02-25T16:39:50.194Z,11.68
2019-02-25T16:44:57.161Z,11.51
2019-02-25T16:50:00.842Z,11.22
2019-02-25T16:55:05.693Z,11.11
2019-02-25T17:00:12.857Z,11.06
2019-02-25T17:05:17.085Z,10.67
2019-02-25T17:10:24.083Z,10.67
2019-02-25T17:15:27.203Z,10.65
2019-02-25T17:20:31.407Z,10.27
2019-02-25T17:25:36.205Z,9.83
2019-02-25T17:30:42.930Z,9.70
2019-02-25T17:35:47.629Z,9.56
2019-02-25T17:40:52.888Z,9.39
2019-02-25T17:46:00.273Z,9.21
2019-02-25T17:51:04.893Z,8.97
2019-02-25T17:56:09.007Z,8.70
2019-02-25T18:01:13.033Z,8.59
2019-02-25T18:06:20.147Z,8.51
2019-02-25T18:11:24.641Z,8.34
2019-02-25T18:16:28.897Z,8.24
2019-02-25T18:21:33.960Z,7.97
2019-02-25T18:26:38.280Z,7.93
2019-02-25T18:31:42.663Z,7.83
2019-02-25T18:36:51.038Z,7.74
2019-02-25T18:41:55.529Z,7.58
2019-02-25T18:47:00.676Z,7.55
2019-02-25T18:52:05.009Z,7.34
2019-02-25T18:57:09.337Z,7.28
2019-02-25T19:02:14.555Z,6.97
2019-02-25T19:07:19.394Z,6.77
2019-02-25T19:12:23.650Z,6.83
2019-02-25T19:17:29.765Z,7.00
2019-02-25T19:22:37.514Z,6.94
2019-02-25T19:27:41.706Z,6.98
2019-02-25T19:32:46.024Z,6.97
2019-02-25T19:37:50.555Z,6.93
2019-02-25T19:42:56.815Z,6.82
2019-02-25T19:48:02.477Z,6.86
2019-02-25T19:53:07.643Z,6.93
2019-02-25T19:58:12.620Z,7.03
2019-02-25T20:03:16.854Z,7.09
2019-02-25T20:08:21.140Z,7.10
2019-02-25T20:13:26.499Z,7.07
2019-02-25T20:18:31.264Z,7.03
2019-02-25T20:23:36.433Z,6.88
2019-02-25T20:28:41.656Z,6.77
2019-02-25T20:33:46.703Z,6.59
2019-02-25T20:38:51.074Z,6.27
2019-02-25T20:43:56.222Z,5.96
2019-02-25T20:49:00.946Z,5.98
2019-02-25T20:54:05.100Z,6.25
2019-02-25T20:59:09.954Z,6.47
2019-02-25T21:04:18.030Z,6.46
2019-02-25T21:09:22.685Z,6.57
2019-02-25T21:14:29.518Z,6.62
2019-02-25T21:19:33.410Z,6.30
2019-02-25T21:24:38.639Z,6.38
2019-02-25T21:29:42.785Z,6.36
2019-02-25T21:34:52.530Z,6.38
2019-02-25T21:39:52.740Z,6.52
2019-02-25T21:44:57.590Z,6.63
2019-02-25T21:50:04.057Z,6.62
2019-02-25T21:55:09.757Z,6.54
2019-02-25T22:00:16.403Z,6.40
2019-02-25T22:05:21.277Z,6.44
2019-02-25T22:10:26.413Z,6.54
2019-02-25T22:15:30.480Z,6.67
2019-02-25T22:20:37.643Z,6.88
2019-02-25T22:25:40.544Z,6.70
2019-02-25T22:30:45.181Z,6.66
2019-02-25T22:35:51.807Z,6.72
2019-02-25T22:40:58.100Z,6.67
2019-02-25T22:46:02.534Z,6.57
2019-02-25T22:51:07.686Z,6.41
2019-02-25T22:56:13.575Z,6.31
2019-02-25T23:01:18.240Z,6.42
2019-02-25T23:06:23.620Z,6.68
2019-02-25T23:11:29.294Z,6.92
2019-02-25T23:16:33.360Z,7.26
2019-02-25T23:21:38.298Z,7.33
2019-02-25T23:26:42.436Z,7.30
2019-02-25T23:31:46.558Z,7.25
2019-02-25T23:36:51.639Z,7.38
2019-02-25T23:41:56.418Z,7.34
2019-02-25T23:47:02.104Z,7.28
2019-02-25T23:52:06.092Z,7.34
2019-02-25T23:57:10.022Z,7.06
